createdAt,value
2019-02-09T00:00:45.799Z,41.90
2019-02-09T00:03:13.335Z,37.17
2019-02-09T00:05:40.803Z,37.83
2019-02-09T00:08:08.981Z,42.40
2019-02-09T00:10:36.451Z,38.20
2019-02-09T00:13:04.190Z,36.50
2019-02-09T00:15:31.795Z,39.93
2019-02-09T00:17:59.383Z,39.20
2019-02-09T00:20:26.919Z,35.17
2019-02-09T00:22:54.414Z,39.83
2019-02-09T00:25:22.601Z,37.50
2019-02-09T00:27:50.026Z,40.60
2019-02-09T00:30:21.151Z,35.97
2019-02-09T00:32:48.623Z,41.20
2019-02-09T00:35:16.888Z,38.17
2019-02-09T00:37:44.381Z,40.63
2019-02-09T00:40:13.393Z,34.97
2019-02-09T00:42:40.859Z,34.23
2019-02-09T00:45:10.175Z,36.17
2019-02-09T00:47:38.506Z,44.20
2019-02-09T00:50:07.472Z,39.27
2019-02-09T00:52:34.960Z,39.80
2019-02-09T00:55:02.472Z,37.08
2019-02-09T00:57:29.943Z,40.92
2019-02-09T00:59:57.463Z,36.87
2019-02-09T01:02:24.941Z,36.33
2019-02-09T01:04:52.450Z,40.60
2019-02-09T01:07:19.916Z,35.65
2019-02-09T01:09:47.383Z,35.03
2019-02-09T01:12:14.838Z,37.30
2019-02-09T01:14:42.257Z,34.90
2019-02-09T01:17:09.731Z,38.98
2019-02-09T01:19:37.193Z,41.40
2019-02-09T01:22:04.776Z,38.83
2019-02-09T01:24:32.255Z,36.17
2019-02-09T01:26:59.732Z,39.50
2019-02-09T01:29:27.277Z,42.35
2019-02-09T01:31:54.747Z,40.00
2019-02-09T01:34:22.266Z,39.67
2019-02-09T01:36:49.735Z,36.00
2019-02-09T01:39:17.217Z,39.20
2019-02-09T01:41:44.790Z,37.37
2019-02-09T01:44:12.282Z,37.20
2019-02-09T01:46:39.762Z,36.93
2019-02-09T01:49:07.227Z,38.30
2019-02-09T01:51:34.750Z,35.87
2019-02-09T01:54:02.215Z,33.20
2019-02-09T01:56:29.694Z,30.77
2019-02-09T01:58:57.180Z,35.00
2019-02-09T02:01:24.652Z,32.47
2019-02-09T02:03:52.103Z,42.10
2019-02-09T02:06:19.607Z,36.30
2019-02-09T02:08:47.432Z,35.23
2019-02-09T02:11:14.903Z,33.30
2019-02-09T02:13:42.423Z,34.03
2019-02-09T02:16:09.900Z,39.05
2019-02-09T02:18:37.453Z,38.30
2019-02-09T02:21:04.940Z,38.40
2019-02-09T02:23:32.416Z,35.73
2019-02-09T02:25:59.871Z,36.15
2019-02-09T02:28:27.379Z,37.08
2019-02-09T02:30:54.855Z,39.10
2019-02-09T02:33:22.320Z,34.73
2019-02-09T02:35:49.807Z,35.87
2019-02-09T02:38:17.354Z,34.60
2019-02-09T02:40:44.821Z,39.33
2019-02-09T02:43:12.311Z,32.17
2019-02-09T02:45:39.707Z,39.92
2019-02-09T02:48:07.235Z,31.80
2019-02-09T02:50:34.740Z,40.20
2019-02-09T02:53:02.281Z,31.40
2019-02-09T02:55:30.544Z,34.67
2019-02-09T02:57:58.102Z,30.53
2019-02-09T03:00:32.503Z,34.37
2019-02-09T03:02:58.670Z,36.63
2019-02-09T03:05:26.280Z,37.60
2019-02-09T03:07:54.029Z,33.00
2019-02-09T03:10:21.692Z,33.37
2019-02-09T03:12:49.213Z,41.05
2019-02-09T03:15:20.838Z,34.83
2019-02-09T03:17:48.307Z,37.33
2019-02-09T03:20:16.815Z,34.60
2019-02-09T03:22:44.305Z,38.45
2019-02-09T03:25:13.225Z,37.40
2019-02-09T03:27:40.719Z,36.38
2019-02-09T03:30:09.696Z,33.77
2019-02-09T03:32:37.199Z,30.80
2019-02-09T03:35:06.344Z,37.88
2019-02-09T03:37:34.052Z,30.60
2019-02-09T03:40:01.573Z,33.53
2019-02-09T03:42:28.994Z,33.35
2019-02-09T03:44:56.487Z,33.35
2019-02-09T03:47:23.886Z,31.30
2019-02-09T03:49:51.356Z,33.13
2019-02-09T03:52:18.851Z,34.78
2019-02-09T03:54:46.316Z,44.47
2019-02-09T03:57:13.784Z,36.40
2019-02-09T03:59:41.277Z,35.52
2019-02-09T04:02:08.765Z,36.30
2019-02-09T04:04:36.228Z,36.50
2019-02-09T04:07:03.744Z,35.35
2019-02-09T04:09:31.243Z,32.10
2019-02-09T04:11:58.716Z,31.05
2019-02-09T04:14:26.192Z,37.77
2019-02-09T04:16:53.683Z,30.25
2019-02-09T04:19:21.162Z,30.52
2019-02-09T04:21:48.559Z,32.60
2019-02-09T04:24:16.052Z,33.90
2019-02-09T04:26:43.519Z,37.53
2019-02-09T04:29:10.996Z,32.20
2019-02-09T04:31:38.445Z,37.03
2019-02-09T04:34:05.916Z,32.80
2019-02-09T04:36:33.432Z,29.65
2019-02-09T04:39:00.907Z,35.00
2019-02-09T04:41:28.368Z,33.00
2019-02-09T04:43:55.860Z,33.45
2019-02-09T04:46:23.337Z,35.40
2019-02-09T04:48:50.799Z,33.67
2019-02-09T04:51:18.301Z,40.05
2019-02-09T04:53:45.781Z,35.60
2019-02-09T04:56:13.253Z,32.50
2019-02-09T04:58:40.774Z,33.10
2019-02-09T05:01:13.829Z,35.45
2019-02-09T05:03:37.365Z,30.55
2019-02-09T05:06:04.880Z,36.65
2019-02-09T05:08:32.347Z,33.83
2019-02-09T05:10:59.861Z,32.38
2019-02-09T05:13:27.423Z,28.47
2019-02-09T05:15:54.819Z,34.87
2019-02-09T05:18:22.278Z,35.30
2019-02-09T05:20:49.805Z,36.08
2019-02-09T05:23:17.270Z,38.60
2019-02-09T05:25:44.736Z,34.47
2019-02-09T05:28:12.228Z,35.23
2019-02-09T05:30:39.702Z,32.40
2019-02-09T05:33:07.163Z,36.50
2019-02-09T05:35:34.680Z,33.70
2019-02-09T05:38:02.147Z,32.23
2019-02-09T05:40:29.633Z,31.15
2019-02-09T05:42:57.127Z,27.77
2019-02-09T05:45:25.633Z,34.75
2019-02-09T05:47:53.097Z,29.97
2019-02-09T05:50:20.616Z,35.28
2019-02-09T05:52:48.080Z,31.52
2019-02-09T05:55:16.042Z,33.73
2019-02-09T05:57:43.525Z,33.80
2019-02-09T06:00:23.082Z,33.57
2019-02-09T06:02:50.581Z,37.28
2019-02-09T06:05:18.057Z,34.90
2019-02-09T06:07:45.559Z,32.05
2019-02-09T06:10:17.106Z,32.50
2019-02-09T06:12:44.622Z,36.57
2019-02-09T06:15:16.312Z,38.48
2019-02-09T06:17:43.816Z,39.65
2019-02-09T06:20:12.771Z,31.37
2019-02-09T06:22:40.267Z,32.25
2019-02-09T06:25:08.143Z,32.28
2019-02-09T06:27:35.683Z,32.33
2019-02-09T06:30:04.872Z,31.87
2019-02-09T06:32:32.416Z,29.47
2019-02-09T06:35:00.098Z,38.50
2019-02-09T06:37:27.561Z,39.27
2019-02-09T06:39:55.148Z,39.60
2019-02-09T06:42:22.634Z,30.62
2019-02-09T06:44:50.131Z,33.27
2019-02-09T06:47:17.628Z,37.27
2019-02-09T06:49:45.097Z,32.30
2019-02-09T06:52:12.563Z,36.97
2019-02-09T06:54:40.067Z,38.48
2019-02-09T06:57:07.565Z,34.93
2019-02-09T06:59:35.032Z,41.23
2019-02-09T07:02:02.508Z,38.35
2019-02-09T07:04:30.096Z,40.13
2019-02-09T07:06:57.557Z,36.53
2019-02-09T07:09:25.019Z,33.80
2019-02-09T07:12:02.805Z,40.53
2019-02-09T07:14:29.327Z,35.65
2019-02-09T07:16:56.786Z,39.27
2019-02-09T07:19:24.299Z,39.03
2019-02-09T07:21:51.755Z,32.57
2019-02-09T07:24:19.239Z,34.95
2019-02-09T07:26:46.711Z,34.63
2019-02-09T07:29:14.188Z,34.13
2019-02-09T07:31:41.658Z,36.50
2019-02-09T07:34:09.273Z,34.57
2019-02-09T07:36:36.735Z,31.63
2019-02-09T07:39:05.665Z,34.10
2019-02-09T07:41:33.163Z,30.20
2019-02-09T07:44:00.655Z,38.50
2019-02-09T07:46:28.117Z,37.57
2019-02-09T07:48:55.610Z,34.70
2019-02-09T07:51:23.069Z,41.37
2019-02-09T07:53:50.529Z,42.40
2019-02-09T07:56:18.014Z,37.13
2019-02-09T07:58:45.467Z,39.97
2019-02-09T08:01:12.980Z,42.10
2019-02-09T08:03:40.434Z,39.53
2019-02-09T08:06:07.907Z,46.53
2019-02-09T08:08:35.467Z,38.20
2019-02-09T08:11:09.061Z,41.23
2019-02-09T08:13:32.051Z,39.43
2019-02-09T08:15:59.558Z,43.97
2019-02-09T08:18:27.056Z,42.27
2019-02-09T08:20:54.595Z,37.53
2019-02-09T08:23:22.058Z,43.03
2019-02-09T08:25:49.541Z,39.63
2019-02-09T08:28:17.093Z,47.33
2019-02-09T08:30:48.702Z,44.67
2019-02-09T08:33:16.181Z,44.53
2019-02-09T08:35:43.711Z,42.80
2019-02-09T08:38:11.615Z,45.43
2019-02-09T08:40:39.090Z,39.00
2019-02-09T08:43:06.666Z,40.27
2019-02-09T08:45:34.242Z,41.80
2019-02-09T08:48:01.740Z,42.20
2019-02-09T08:50:33.259Z,43.80
2019-02-09T08:53:00.716Z,44.77
2019-02-09T08:55:28.208Z,48.07
2019-02-09T08:57:55.711Z,47.30
2019-02-09T09:00:27.307Z,48.90
2019-02-09T09:02:54.784Z,49.73
2019-02-09T09:05:22.275Z,45.03
2019-02-09T09:07:49.761Z,41.53
2019-02-09T09:10:24.208Z,44.13
2019-02-09T09:12:51.708Z,42.60
2019-02-09T09:15:20.767Z,42.70
2019-02-09T09:17:48.240Z,43.63
2019-02-09T09:20:20.005Z,54.37
2019-02-09T09:22:47.471Z,46.67
2019-02-09T09:25:14.939Z,51.90
2019-02-09T09:27:42.430Z,40.37
2019-02-09T09:30:11.356Z,45.03
2019-02-09T09:32:38.819Z,44.50
2019-02-09T09:35:07.934Z,45.67
2019-02-09T09:37:35.472Z,42.50
2019-02-09T09:40:03.032Z,38.83
2019-02-09T09:42:30.523Z,36.50
2019-02-09T09:44:57.983Z,42.13
2019-02-09T09:47:25.445Z,44.47
2019-02-09T09:49:52.946Z,42.33
2019-02-09T09:52:20.479Z,37.97
2019-02-09T09:54:47.990Z,47.63
2019-02-09T09:57:15.487Z,38.30
2019-02-09T09:59:42.952Z,43.30
2019-02-09T10:02:10.418Z,43.93
2019-02-09T10:04:37.902Z,37.97
2019-02-09T10:07:05.443Z,42.13
2019-02-09T10:09:32.918Z,36.90
2019-02-09T10:12:00.417Z,33.17
2019-02-09T10:14:27.920Z,37.67
2019-02-09T10:16:55.320Z,38.67
2019-02-09T10:19:22.787Z,30.90
2019-02-09T10:21:50.348Z,31.17
2019-02-09T10:24:17.806Z,35.03
2019-02-09T10:26:45.296Z,34.77
2019-02-09T10:29:12.764Z,33.03
2019-02-09T10:31:40.223Z,31.87
2019-02-09T10:34:07.732Z,32.43
2019-02-09T10:36:35.289Z,39.33
2019-02-09T10:39:03.139Z,29.20
2019-02-09T10:41:30.645Z,34.13
2019-02-09T10:43:58.124Z,29.40
2019-02-09T10:46:25.590Z,31.63
2019-02-09T10:48:53.093Z,27.53
2019-02-09T10:51:20.579Z,29.43
2019-02-09T10:53:48.048Z,30.57
2019-02-09T10:56:15.601Z,30.23
2019-02-09T10:58:43.080Z,37.50
2019-02-09T11:01:11.639Z,34.40
2019-02-09T11:03:39.211Z,27.33
2019-02-09T11:06:06.710Z,29.57
2019-02-09T11:08:34.201Z,28.53
2019-02-09T11:11:01.672Z,27.73
2019-02-09T11:13:29.176Z,28.03
2019-02-09T11:15:56.646Z,27.10
2019-02-09T11:18:24.292Z,25.20
2019-02-09T11:20:51.799Z,25.83
2019-02-09T11:23:19.279Z,27.10
2019-02-09T11:25:46.745Z,29.73
2019-02-09T11:28:14.251Z,27.97
2019-02-09T11:30:41.776Z,26.87
2019-02-09T11:33:09.232Z,27.80
2019-02-09T11:35:36.729Z,33.57
2019-02-09T11:38:04.217Z,24.83
2019-02-09T11:40:32.462Z,21.73
2019-02-09T11:43:00.541Z,24.67
2019-02-09T11:45:28.799Z,31.33
2019-02-09T11:47:56.266Z,25.87
2019-02-09T11:50:23.778Z,23.03
2019-02-09T11:52:51.234Z,28.07
2019-02-09T11:55:19.209Z,23.60
2019-02-09T11:57:49.885Z,25.93
2019-02-09T12:00:24.867Z,37.13
2019-02-09T12:02:52.332Z,24.23
2019-02-09T12:05:19.874Z,39.27
2019-02-09T12:07:47.558Z,28.40
2019-02-09T12:10:16.545Z,22.93
2019-02-09T12:12:44.000Z,24.70
2019-02-09T12:15:12.969Z,26.13
2019-02-09T12:17:40.449Z,19.67
2019-02-09T12:20:09.436Z,24.37
2019-02-09T12:22:36.971Z,30.77
2019-02-09T12:25:05.921Z,17.87
2019-02-09T12:27:33.391Z,23.23
2019-02-09T12:30:00.886Z,38.30
2019-02-09T12:32:28.349Z,23.17
2019-02-09T12:34:55.812Z,20.83
2019-02-09T12:37:23.329Z,18.80
2019-02-09T12:39:50.756Z,22.60
2019-02-09T12:42:18.290Z,20.97
2019-02-09T12:44:45.789Z,18.53
2019-02-09T12:47:13.260Z,22.07
2019-02-09T12:49:40.732Z,18.90
2019-02-09T12:52:08.232Z,26.30
2019-02-09T12:54:35.780Z,20.87
2019-02-09T12:57:03.289Z,23.50
2019-02-09T12:59:30.744Z,18.80
2019-02-09T13:01:58.239Z,15.50
2019-02-09T13:04:25.775Z,20.90
2019-02-09T13:06:53.275Z,17.17
2019-02-09T13:09:20.756Z,18.60
2019-02-09T13:11:48.248Z,15.87
2019-02-09T13:14:15.788Z,16.60
2019-02-09T13:16:43.259Z,14.87
2019-02-09T13:19:10.768Z,14.90
2019-02-09T13:21:38.235Z,16.50
2019-02-09T13:24:05.704Z,21.40
2019-02-09T13:26:33.218Z,18.13
2019-02-09T13:29:00.685Z,17.73
2019-02-09T13:31:28.156Z,17.60
2019-02-09T13:33:55.747Z,18.37
2019-02-09T13:36:23.147Z,14.87
2019-02-09T13:38:50.741Z,16.53
2019-02-09T13:41:18.314Z,12.77
2019-02-09T13:43:45.786Z,10.80
2019-02-09T13:46:13.312Z,12.20
2019-02-09T13:48:40.975Z,14.83
2019-02-09T13:51:08.435Z,10.13
2019-02-09T13:53:35.912Z,12.07
2019-02-09T13:56:03.411Z,10.27
2019-02-09T13:58:30.880Z,12.13
2019-02-09T14:00:58.368Z,10.80
2019-02-09T14:03:25.851Z,12.13
2019-02-09T14:05:53.324Z,12.47
2019-02-09T14:08:20.815Z,12.10
2019-02-09T14:10:48.278Z,11.73
2019-02-09T14:13:15.822Z,15.00
2019-02-09T14:15:43.386Z,14.60
2019-02-09T14:18:11.183Z,11.90
2019-02-09T14:20:38.773Z,13.27
2019-02-09T14:23:06.538Z,11.77
2019-02-09T14:25:34.019Z,11.50
2019-02-09T14:28:02.252Z,13.23
2019-02-09T14:30:36.584Z,12.70
2019-02-09T14:33:05.050Z,14.53
2019-02-09T14:35:32.523Z,12.53
2019-02-09T14:38:00.065Z,14.43
2019-02-09T14:40:28.765Z,17.60
2019-02-09T14:42:56.350Z,16.83
2019-02-09T14:45:24.919Z,14.87
2019-02-09T14:47:52.498Z,22.83
2019-02-09T14:50:19.961Z,18.60
2019-02-09T14:52:47.435Z,13.00
2019-02-09T14:55:22.146Z,16.27
2019-02-09T14:57:49.608Z,16.77
2019-02-09T15:00:18.491Z,15.53
2019-02-09T15:02:53.403Z,17.10
2019-02-09T15:05:15.416Z,17.43
2019-02-09T15:07:42.895Z,14.73
2019-02-09T15:10:12.079Z,15.47
2019-02-09T15:12:39.565Z,14.60
2019-02-09T15:15:08.530Z,15.47
2019-02-09T15:17:36.000Z,19.40
2019-02-09T15:20:05.043Z,17.03
2019-02-09T15:22:32.528Z,17.83
2019-02-09T15:24:59.998Z,22.10
2019-02-09T15:27:27.481Z,17.17
2019-02-09T15:29:54.987Z,15.67
2019-02-09T15:32:22.454Z,19.63
2019-02-09T15:34:49.987Z,14.27
2019-02-09T15:37:17.481Z,15.93
2019-02-09T15:39:45.018Z,16.57
2019-02-09T15:42:12.480Z,16.10
2019-02-09T15:44:40.017Z,16.93
2019-02-09T15:47:07.584Z,21.60
2019-02-09T15:49:35.056Z,12.43
2019-02-09T15:52:02.530Z,12.60
2019-02-09T15:54:30.015Z,21.10
2019-02-09T15:56:57.564Z,16.77
2019-02-09T15:59:25.047Z,21.73
2019-02-09T16:01:52.537Z,26.13
2019-02-09T16:04:20.012Z,22.20
2019-02-09T16:06:47.501Z,14.73
2019-02-09T16:09:14.991Z,16.80
2019-02-09T16:11:42.468Z,18.80
2019-02-09T16:14:09.928Z,18.00
2019-02-09T16:16:37.487Z,25.73
2019-02-09T16:19:05.033Z,16.80
2019-02-09T16:21:32.533Z,19.50
2019-02-09T16:23:59.995Z,19.20
2019-02-09T16:26:27.463Z,15.50
2019-02-09T16:28:55.040Z,18.50
2019-02-09T16:31:22.511Z,21.97
2019-02-09T16:33:49.997Z,18.67
2019-02-09T16:36:17.495Z,16.90
2019-02-09T16:38:45.980Z,17.97
2019-02-09T16:41:13.510Z,16.77
2019-02-09T16:43:41.843Z,18.40
2019-02-09T16:46:09.498Z,21.00
2019-02-09T16:48:36.962Z,24.37
2019-02-09T16:51:04.539Z,20.33
2019-02-09T16:53:32.036Z,17.60
2019-02-09T16:55:59.568Z,15.50
2019-02-09T16:58:27.043Z,24.33
2019-02-09T17:00:54.555Z,22.23
2019-02-09T17:03:22.103Z,19.73
2019-02-09T17:05:49.590Z,20.60
2019-02-09T17:08:17.112Z,22.33
2019-02-09T17:10:44.575Z,20.93
2019-02-09T17:13:12.049Z,24.03
2019-02-09T17:15:39.606Z,26.90
2019-02-09T17:18:07.936Z,28.90
2019-02-09T17:20:35.712Z,27.67
2019-02-09T17:23:03.211Z,24.97
2019-02-09T17:25:30.691Z,20.93
2019-02-09T17:27:58.220Z,29.30
2019-02-09T17:30:27.300Z,24.83
2019-02-09T17:32:55.056Z,24.40
2019-02-09T17:35:22.740Z,26.90
2019-02-09T17:37:50.225Z,24.00
2019-02-09T17:40:19.252Z,30.93
2019-02-09T17:42:53.164Z,25.70
2019-02-09T17:45:32.790Z,30.70
2019-02-09T17:48:00.365Z,22.03
2019-02-09T17:50:27.845Z,23.70
2019-02-09T17:52:55.378Z,25.87
2019-02-09T17:55:22.886Z,25.30
2019-02-09T17:57:50.384Z,27.83
2019-02-09T18:00:18.935Z,27.77
2019-02-09T18:02:46.499Z,23.67
2019-02-09T18:05:13.978Z,32.43
2019-02-09T18:07:41.539Z,31.80
2019-02-09T18:10:10.489Z,27.23
2019-02-09T18:12:38.066Z,29.47
2019-02-09T18:15:06.823Z,28.87
2019-02-09T18:17:34.300Z,25.33
2019-02-09T18:20:01.889Z,25.87
2019-02-09T18:22:29.460Z,28.80
2019-02-09T18:24:56.932Z,31.77
2019-02-09T18:27:24.437Z,31.77
2019-02-09T18:29:51.906Z,35.33
2019-02-09T18:32:19.369Z,33.17
2019-02-09T18:34:46.939Z,29.80
2019-02-09T18:37:14.417Z,33.67
2019-02-09T18:39:41.983Z,30.93
2019-02-09T18:42:09.500Z,34.87
2019-02-09T18:44:36.990Z,31.27
2019-02-09T18:47:04.461Z,35.60
2019-02-09T18:49:31.957Z,34.50
2019-02-09T18:51:59.438Z,32.07
2019-02-09T18:54:26.964Z,30.23
2019-02-09T18:56:54.489Z,29.73
2019-02-09T18:59:22.012Z,36.87
2019-02-09T19:01:49.501Z,30.63
2019-02-09T19:04:16.982Z,31.07
2019-02-09T19:06:45.637Z,30.73
2019-02-09T19:09:13.240Z,33.47
2019-02-09T19:11:40.737Z,27.47
2019-02-09T19:14:08.480Z,28.90
2019-02-09T19:16:36.052Z,30.60
2019-02-09T19:19:04.048Z,31.40
2019-02-09T19:21:31.555Z,30.50
2019-02-09T19:23:59.093Z,34.50
2019-02-09T19:26:28.071Z,32.43
2019-02-09T19:28:55.633Z,29.33
2019-02-09T19:31:24.320Z,31.00
2019-02-09T19:33:51.783Z,33.10
2019-02-09T19:36:19.269Z,31.33
2019-02-09T19:38:46.784Z,31.10
2019-02-09T19:41:14.329Z,28.90
2019-02-09T19:43:41.876Z,29.70
2019-02-09T19:46:09.404Z,30.90
2019-02-09T19:48:37.027Z,28.70
2019-02-09T19:51:04.560Z,32.27
2019-02-09T19:53:32.130Z,35.47
2019-02-09T19:55:59.615Z,28.40
2019-02-09T19:58:27.110Z,35.53
2019-02-09T20:00:54.723Z,29.50
2019-02-09T20:03:22.279Z,29.47
2019-02-09T20:05:49.927Z,28.90
2019-02-09T20:08:17.348Z,34.00
2019-02-09T20:10:44.941Z,29.47
2019-02-09T20:13:15.775Z,31.20
2019-02-09T20:15:43.332Z,31.13
2019-02-09T20:18:11.218Z,28.00
2019-02-09T20:20:46.480Z,25.27
2019-02-09T20:23:07.940Z,35.50
2019-02-09T20:25:35.840Z,27.50
2019-02-09T20:28:04.526Z,30.90
2019-02-09T20:30:33.553Z,37.27
2019-02-09T20:33:01.140Z,31.60
2019-02-09T20:35:28.873Z,31.60
2019-02-09T20:37:56.369Z,35.67
2019-02-09T20:40:25.396Z,33.47
2019-02-09T20:42:52.957Z,27.60
2019-02-09T20:45:20.472Z,31.63
2019-02-09T20:47:50.121Z,27.30
2019-02-09T20:50:17.656Z,30.93
2019-02-09T20:52:45.179Z,33.83
2019-02-09T20:55:13.669Z,36.47
2019-02-09T20:57:42.489Z,41.20
2019-02-09T21:00:18.627Z,30.20
2019-02-09T21:02:46.332Z,26.87
2019-02-09T21:05:14.321Z,31.43
2019-02-09T21:07:41.897Z,32.57
2019-02-09T21:10:10.823Z,28.63
2019-02-09T21:12:38.316Z,27.20
2019-02-09T21:15:07.362Z,30.80
2019-02-09T21:17:34.928Z,27.70
2019-02-09T21:20:02.700Z,33.60
2019-02-09T21:22:30.238Z,35.43
2019-02-09T21:24:57.732Z,29.03
2019-02-09T21:27:25.325Z,23.63
2019-02-09T21:29:52.879Z,28.97
2019-02-09T21:32:20.851Z,28.47
2019-02-09T21:34:48.347Z,26.20
2019-02-09T21:37:15.896Z,27.53
2019-02-09T21:39:43.419Z,30.80
2019-02-09T21:42:10.909Z,28.17
2019-02-09T21:44:38.372Z,29.27
2019-02-09T21:47:05.858Z,33.57
2019-02-09T21:49:34.256Z,30.27
2019-02-09T21:52:01.761Z,29.00
2019-02-09T21:54:29.328Z,27.87
2019-02-09T21:56:56.817Z,30.47
2019-02-09T21:59:24.380Z,33.17
2019-02-09T22:01:51.846Z,35.67
2019-02-09T22:04:19.319Z,28.07
2019-02-09T22:06:46.841Z,33.90
2019-02-09T22:09:14.315Z,29.00
2019-02-09T22:11:41.851Z,29.00
2019-02-09T22:14:09.424Z,26.00
2019-02-09T22:16:37.036Z,28.90
2019-02-09T22:19:04.603Z,28.27
2019-02-09T22:21:32.265Z,25.87
2019-02-09T22:23:59.870Z,27.27
2019-02-09T22:26:27.433Z,26.90
2019-02-09T22:28:55.159Z,33.57
2019-02-09T22:31:22.708Z,27.20
2019-02-09T22:33:50.190Z,25.83
2019-02-09T22:36:17.705Z,29.30
2019-02-09T22:38:45.240Z,32.00
2019-02-09T22:41:12.695Z,29.53
2019-02-09T22:43:40.202Z,33.00
2019-02-09T22:46:07.691Z,26.40
2019-02-09T22:48:35.229Z,27.40
2019-02-09T22:51:02.788Z,27.97
2019-02-09T22:53:30.272Z,27.20
2019-02-09T22:55:57.746Z,30.70
2019-02-09T22:58:25.395Z,30.77
2019-02-09T23:00:58.192Z,25.67
2019-02-09T23:03:27.211Z,29.10
2019-02-09T23:06:11.163Z,29.20
2019-02-09T23:08:38.641Z,25.43
2019-02-09T23:11:06.120Z,32.37
2019-02-09T23:13:33.707Z,30.00
2019-02-09T23:16:01.181Z,27.37
2019-02-09T23:18:28.675Z,28.60
2019-02-09T23:20:56.167Z,37.23
2019-02-09T23:23:23.651Z,32.63
2019-02-09T23:25:51.133Z,33.10
2019-02-09T23:28:18.630Z,31.57
2019-02-09T23:30:46.149Z,27.90
2019-02-09T23:33:13.630Z,29.20
2019-02-09T23:35:41.117Z,30.57
2019-02-09T23:38:08.590Z,33.83
2019-02-09T23:40:36.069Z,27.93
2019-02-09T23:43:03.632Z,32.43
2019-02-09T23:45:31.099Z,30.87
2019-02-09T23:47:58.560Z,33.17
2019-02-09T23:50:26.034Z,32.30
2019-02-09T23:52:53.505Z,35.23
2019-02-09T23:55:21.063Z,29.73
2019-02-09T23:57:48.541Z,34.47
